sensor_id;sensor_type;location;lat;lon;timestamp;pressure;altitude;pressure_sealevel;temperature;humidity
9110;BME280;4590;51.462;6.692;2022-12-29T00:01:15;100038.06;;;12.50;70.69
9110;BME280;4590;51.462;6.692;2022-12-29T00:03:41;100034.22;;;12.42;71.30
9110;BME280;4590;51.462;6.692;2022-12-29T00:06:06;100025.34;;;12.37;71.85
9110;BME280;4590;51.462;6.692;2022-12-29T00:08:31;100020.44;;;12.42;71.59
9110;BME280;4590;51.462;6.692;2022-12-29T00:11:10;100018.53;;;12.34;72.18
9110;BME280;4590;51.462;6.692;2022-12-29T00:13:36;100016.25;;;12.36;72.43
9110;BME280;4590;51.462;6.692;2022-12-29T00:16:20;100015.91;;;12.38;71.83
9110;BME280;4590;51.462;6.692;2022-12-29T00:18:45;99996.31;;;12.30;72.70
9110;BME280;4590;51.462;6.692;2022-12-29T00:21:15;99997.03;;;12.27;72.56
9110;BME280;4590;51.462;6.692;2022-12-29T00:24:00;99995.59;;;12.21;73.27
9110;BME280;4590;51.462;6.692;2022-12-29T00:26:45;100001.25;;;12.25;72.78
9110;BME280;4590;51.462;6.692;2022-12-29T00:29:30;99996.25;;;12.18;73.13
9110;BME280;4590;51.462;6.692;2022-12-29T00:32:31;99997.53;;;12.21;73.19
9110;BME280;4590;51.462;6.692;2022-12-29T00:35:30;99992.53;;;12.14;73.37
9110;BME280;4590;51.462;6.692;2022-12-29T00:38:00;99979.81;;;12.01;74.42
9110;BME280;4590;51.462;6.692;2022-12-29T00:40:45;99975.34;;;12.17;73.57
9110;BME280;4590;51.462;6.692;2022-12-29T00:43:29;99978.91;;;12.18;73.59
9110;BME280;4590;51.462;6.692;2022-12-29T00:46:13;99989.88;;;12.26;73.59
9110;BME280;4590;51.462;6.692;2022-12-29T00:48:38;99971.25;;;12.23;73.57
9110;BME280;4590;51.462;6.692;2022-12-29T00:51:22;99969.47;;;12.19;74.15
9110;BME280;4590;51.462;6.692;2022-12-29T00:53:48;99977.44;;;12.20;74.19
9110;BME280;4590;51.462;6.692;2022-12-29T00:56:13;99970.09;;;12.24;74.09
9110;BME280;4590;51.462;6.692;2022-12-29T00:58:39;99969.44;;;12.27;73.85
9110;BME280;4590;51.462;6.692;2022-12-29T01:01:07;99968.50;;;12.23;74.16
9110;BME280;4590;51.462;6.692;2022-12-29T01:03:36;99966.06;;;12.22;74.30
9110;BME280;4590;51.462;6.692;2022-12-29T01:06:04;99955.84;;;12.22;74.15
9110;BME280;4590;51.462;6.692;2022-12-29T01:08:29;99949.84;;;12.20;74.12
9110;BME280;4590;51.462;6.692;2022-12-29T01:11:07;99958.91;;;12.00;76.29
9110;BME280;4590;51.462;6.692;2022-12-29T01:13:33;99959.53;;;12.06;75.17
9110;BME280;4590;51.462;6.692;2022-12-29T01:15:58;99959.94;;;12.16;74.54
9110;BME280;4590;51.462;6.692;2022-12-29T01:18:25;99961.06;;;12.15;74.59
9110;BME280;4590;51.462;6.692;2022-12-29T01:20:50;99955.88;;;11.93;75.72
9110;BME280;4590;51.462;6.692;2022-12-29T01:23:16;99939.69;;;12.12;74.79
9110;BME280;4590;51.462;6.692;2022-12-29T01:25:41;99944.00;;;12.22;74.09
9110;BME280;4590;51.462;6.692;2022-12-29T01:28:07;99952.41;;;12.25;73.79
9110;BME280;4590;51.462;6.692;2022-12-29T01:30:33;99937.13;;;12.28;73.78
9110;BME280;4590;51.462;6.692;2022-12-29T01:32:59;99928.94;;;12.19;73.88
9110;BME280;4590;51.462;6.692;2022-12-29T01:35:25;99926.69;;;12.34;73.29
9110;BME280;4590;51.462;6.692;2022-12-29T01:37:50;99928.13;;;12.40;72.99
9110;BME280;4590;51.462;6.692;2022-12-29T01:40:15;99931.78;;;12.44;72.84
9110;BME280;4590;51.462;6.692;2022-12-29T01:42:41;99922.13;;;12.38;72.86
9110;BME280;4590;51.462;6.692;2022-12-29T01:45:10;99927.22;;;12.48;72.19
9110;BME280;4590;51.462;6.692;2022-12-29T01:47:39;99921.16;;;12.54;72.14
9110;BME280;4590;51.462;6.692;2022-12-29T01:50:11;99926.03;;;12.37;72.32
9110;BME280;4590;51.462;6.692;2022-12-29T01:52:44;99923.31;;;12.49;71.96
9110;BME280;4590;51.462;6.692;2022-12-29T01:55:14;99909.56;;;12.61;71.58
9110;BME280;4590;51.462;6.692;2022-12-29T01:57:42;99915.63;;;12.54;71.10
9110;BME280;4590;51.462;6.692;2022-12-29T02:00:11;99917.25;;;12.55;71.66
9110;BME280;4590;51.462;6.692;2022-12-29T02:02:37;99918.16;;;12.59;71.25
9110;BME280;4590;51.462;6.692;2022-12-29T02:05:07;99927.38;;;12.63;70.84
9110;BME280;4590;51.462;6.692;2022-12-29T02:07:35;99930.88;;;12.73;70.62
9110;BME280;4590;51.462;6.692;2022-12-29T02:10:02;99933.19;;;12.71;70.53
9110;BME280;4590;51.462;6.692;2022-12-29T02:12:28;99929.84;;;12.77;70.60
9110;BME280;4590;51.462;6.692;2022-12-29T02:14:57;99918.00;;;12.77;69.73
9110;BME280;4590;51.462;6.692;2022-12-29T02:17:47;99922.28;;;12.74;69.07
9110;BME280;4590;51.462;6.692;2022-12-29T02:23:25;99930.66;;;12.78;68.97
9110;BME280;4590;51.462;6.692;2022-12-29T02:26:16;99913.81;;;12.58;68.50
9110;BME280;4590;51.462;6.692;2022-12-29T02:29:15;99906.03;;;12.73;68.25
9110;BME280;4590;51.462;6.692;2022-12-29T02:32:01;99905.47;;;12.79;68.50
9110;BME280;4590;51.462;6.692;2022-12-29T02:34:48;99899.38;;;12.74;68.34
9110;BME280;4590;51.462;6.692;2022-12-29T02:42:59;99882.81;;;12.74;67.56
9110;BME280;4590;51.462;6.692;2022-12-29T02:45:36;99887.09;;;12.83;67.90
9110;BME280;4590;51.462;6.692;2022-12-29T02:50:48;99882.38;;;12.84;67.01
9110;BME280;4590;51.462;6.692;2022-12-29T02:53:17;99891.59;;;12.88;67.70
9110;BME280;4590;51.462;6.692;2022-12-29T02:56:04;99893.31;;;12.92;67.74
9110;BME280;4590;51.462;6.692;2022-12-29T02:58:29;99887.69;;;12.89;67.63
9110;BME280;4590;51.462;6.692;2022-12-29T03:03:53;99885.34;;;12.91;67.05
9110;BME280;4590;51.462;6.692;2022-12-29T03:06:30;99879.75;;;12.87;67.06
9110;BME280;4590;51.462;6.692;2022-12-29T03:09:14;99858.78;;;12.86;66.95
9110;BME280;4590;51.462;6.692;2022-12-29T03:11:53;99880.06;;;12.86;67.32
9110;BME280;4590;51.462;6.692;2022-12-29T03:14:58;99869.59;;;12.91;67.37
9110;BME280;4590;51.462;6.692;2022-12-29T03:17:51;99882.50;;;12.87;67.08
9110;BME280;4590;51.462;6.692;2022-12-29T03:20:24;99878.13;;;12.86;67.06
9110;BME280;4590;51.462;6.692;2022-12-29T03:22:53;99869.97;;;12.90;67.28
9110;BME280;4590;51.462;6.692;2022-12-29T03:25:51;99868.09;;;12.82;66.57
9110;BME280;4590;51.462;6.692;2022-12-29T03:28:24;99869.59;;;12.91;66.46
9110;BME280;4590;51.462;6.692;2022-12-29T03:30:50;99871.00;;;12.97;67.20
9110;BME280;4590;51.462;6.692;2022-12-29T03:33:20;99865.25;;;12.90;66.68
9110;BME280;4590;51.462;6.692;2022-12-29T03:35:47;99859.63;;;12.99;67.09
9110;BME280;4590;51.462;6.692;2022-12-29T03:38:18;99861.31;;;12.91;67.02
9110;BME280;4590;51.462;6.692;2022-12-29T03:40:48;99849.84;;;12.89;66.70
9110;BME280;4590;51.462;6.692;2022-12-29T03:43:15;99856.03;;;12.86;67.22
9110;BME280;4590;51.462;6.692;2022-12-29T03:45:41;99872.34;;;12.91;67.19
9110;BME280;4590;51.462;6.692;2022-12-29T03:48:06;99859.25;;;12.88;67.86
9110;BME280;4590;51.462;6.692;2022-12-29T03:50:31;99852.22;;;12.91;68.01
9110;BME280;4590;51.462;6.692;2022-12-29T03:52:57;99835.56;;;12.87;68.02
9110;BME280;4590;51.462;6.692;2022-12-29T03:55:22;99843.94;;;12.91;67.89
9110;BME280;4590;51.462;6.692;2022-12-29T03:57:47;99839.94;;;12.88;67.91
9110;BME280;4590;51.462;6.692;2022-12-29T04:00:13;99821.50;;;12.92;67.79
9110;BME280;4590;51.462;6.692;2022-12-29T04:02:38;99829.44;;;12.94;67.68
9110;BME280;4590;51.462;6.692;2022-12-29T04:05:04;99822.66;;;12.91;68.17
9110;BME280;4590;51.462;6.692;2022-12-29T04:07:29;99809.09;;;12.86;68.61
9110;BME280;4590;51.462;6.692;2022-12-29T04:09:54;99822.91;;;12.86;68.62
9110;BME280;4590;51.462;6.692;2022-12-29T04:12:20;99817.38;;;12.86;68.66
9110;BME280;4590;51.462;6.692;2022-12-29T04:14:45;99808.50;;;12.81;69.03
9110;BME280;4590;51.462;6.692;2022-12-29T04:17:10;99798.63;;;12.80;68.86
9110;BME280;4590;51.462;6.692;2022-12-29T04:19:35;99801.72;;;12.78;68.97
9110;BME280;4590;51.462;6.692;2022-12-29T04:22:01;99804.72;;;12.73;69.19
9110;BME280;4590;51.462;6.692;2022-12-29T04:24:26;99801.63;;;12.75;68.94
9110;BME280;4590;51.462;6.692;2022-12-29T04:26:51;99806.44;;;12.78;68.91
9110;BME280;4590;51.462;6.692;2022-12-29T04:29:17;99801.97;;;12.73;69.03
9110;BME280;4590;51.462;6.692;2022-12-29T04:31:42;99805.06;;;12.72;68.94
9110;BME280;4590;51.462;6.692;2022-12-29T04:34:07;99813.81;;;12.74;68.45
9110;BME280;4590;51.462;6.692;2022-12-29T04:36:32;99797.94;;;12.83;68.49
9110;BME280;4590;51.462;6.692;2022-12-29T04:38:58;99804.25;;;12.83;68.37
9110;BME280;4590;51.462;6.692;2022-12-29T04:41:23;99808.16;;;12.82;68.26
9110;BME280;4590;51.462;6.692;2022-12-29T04:43:49;99810.94;;;12.82;68.15
9110;BME280;4590;51.462;6.692;2022-12-29T04:46:14;99806.22;;;12.83;67.74
9110;BME280;4590;51.462;6.692;2022-12-29T04:48:39;99812.00;;;12.90;67.73
9110;BME280;4590;51.462;6.692;2022-12-29T04:51:05;99804.72;;;12.85;67.70
9110;BME280;4590;51.462;6.692;2022-12-29T04:53:30;99798.28;;;12.93;67.36
9110;BME280;4590;51.462;6.692;2022-12-29T04:55:55;99812.00;;;12.90;67.14
9110;BME280;4590;51.462;6.692;2022-12-29T04:58:21;99820.81;;;12.95;66.78
9110;BME280;4590;51.462;6.692;2022-12-29T05:00:47;99827.97;;;12.84;65.83
9110;BME280;4590;51.462;6.692;2022-12-29T05:03:12;99844.44;;;13.05;66.40
9110;BME280;4590;51.462;6.692;2022-12-29T05:05:37;99839.47;;;13.11;66.48
9110;BME280;4590;51.462;6.692;2022-12-29T05:08:03;99851.47;;;13.15;66.35
9110;BME280;4590;51.462;6.692;2022-12-29T05:10:28;99864.13;;;13.04;66.65
9110;BME280;4590;51.462;6.692;2022-12-29T05:12:53;99875.50;;;13.02;66.60
9110;BME280;4590;51.462;6.692;2022-12-29T05:15:19;99880.88;;;12.74;67.85
9110;BME280;4590;51.462;6.692;2022-12-29T05:17:44;99883.19;;;12.84;67.15
9110;BME280;4590;51.462;6.692;2022-12-29T05:20:10;99870.72;;;12.78;67.45
9110;BME280;4590;51.462;6.692;2022-12-29T05:22:36;99886.25;;;12.71;67.89
9110;BME280;4590;51.462;6.692;2022-12-29T05:25:01;99864.38;;;12.65;68.17
9110;BME280;4590;51.462;6.692;2022-12-29T05:27:27;99867.72;;;12.59;68.40
9110;BME280;4590;51.462;6.692;2022-12-29T05:29:52;99873.91;;;12.56;68.31
9110;BME280;4590;51.462;6.692;2022-12-29T05:32:18;99873.97;;;12.47;68.64
9110;BME280;4590;51.462;6.692;2022-12-29T05:34:43;99866.03;;;12.46;68.45
9110;BME280;4590;51.462;6.692;2022-12-29T05:37:08;99862.72;;;12.40;68.50
9110;BME280;4590;51.462;6.692;2022-12-29T05:39:33;99875.69;;;12.40;68.37
9110;BME280;4590;51.462;6.692;2022-12-29T05:41:59;99886.25;;;12.38;68.23
9110;BME280;4590;51.462;6.692;2022-12-29T05:44:24;99873.34;;;12.29;67.92
9110;BME280;4590;51.462;6.692;2022-12-29T05:46:49;99892.78;;;12.33;67.17
9110;BME280;4590;51.462;6.692;2022-12-29T05:49:15;99893.59;;;12.34;66.95
9110;BME280;4590;51.462;6.692;2022-12-29T05:51:41;99901.88;;;12.34;66.72
9110;BME280;4590;51.462;6.692;2022-12-29T05:54:06;99902.34;;;12.36;66.26
9110;BME280;4590;51.462;6.692;2022-12-29T05:56:31;99903.34;;;12.31;66.13
9110;BME280;4590;51.462;6.692;2022-12-29T05:58:56;99905.78;;;12.33;66.20
9110;BME280;4590;51.462;6.692;2022-12-29T06:01:22;99904.28;;;12.35;65.89
9110;BME280;4590;51.462;6.692;2022-12-29T06:03:47;99916.13;;;12.36;66.05
9110;BME280;4590;51.462;6.692;2022-12-29T06:06:12;99921.50;;;12.32;66.03
9110;BME280;4590;51.462;6.692;2022-12-29T06:08:37;99920.38;;;12.33;65.77
9110;BME280;4590;51.462;6.692;2022-12-29T06:11:03;99932.53;;;12.32;66.01
9110;BME280;4590;51.462;6.692;2022-12-29T06:13:28;99935.31;;;12.32;65.76
9110;BME280;4590;51.462;6.692;2022-12-29T06:15:53;99932.88;;;12.30;65.88
9110;BME280;4590;51.462;6.692;2022-12-29T06:18:19;99932.41;;;12.28;66.20
9110;BME280;4590;51.462;6.692;2022-12-29T06:20:44;99938.72;;;12.29;66.16
9110;BME280;4590;51.462;6.692;2022-12-29T06:23:09;99938.72;;;12.29;66.34
9110;BME280;4590;51.462;6.692;2022-12-29T06:25:36;99957.72;;;12.30;66.29
9110;BME280;4590;51.462;6.692;2022-12-29T06:28:03;99963.69;;;12.33;66.62
9110;BME280;4590;51.462;6.692;2022-12-29T06:30:30;99957.84;;;12.34;66.45
9110;BME280;4590;51.462;6.692;2022-12-29T06:32:55;99952.41;;;12.25;66.82
9110;BME280;4590;51.462;6.692;2022-12-29T06:35:20;99954.47;;;12.28;66.63
9110;BME280;4590;51.462;6.692;2022-12-29T06:37:47;99949.09;;;12.32;66.37
9110;BME280;4590;51.462;6.692;2022-12-29T06:40:13;99954.28;;;12.34;66.53
9110;BME280;4590;51.462;6.692;2022-12-29T06:42:38;99965.31;;;12.34;66.28
9110;BME280;4590;51.462;6.692;2022-12-29T06:45:04;99963.38;;;12.34;66.18
9110;BME280;4590;51.462;6.692;2022-12-29T06:47:29;99958.66;;;12.35;66.37
9110;BME280;4590;51.462;6.692;2022-12-29T06:49:54;99968.56;;;12.36;66.17
9110;BME280;4590;51.462;6.692;2022-12-29T06:52:20;99959.47;;;12.35;66.54
9110;BME280;4590;51.462;6.692;2022-12-29T06:54:45;99972.13;;;12.36;66.40
9110;BME280;4590;51.462;6.692;2022-12-29T06:57:10;99964.31;;;12.38;66.13
9110;BME280;4590;51.462;6.692;2022-12-29T06:59:36;99964.78;;;12.40;66.25
9110;BME280;4590;51.462;6.692;2022-12-29T07:02:01;99965.59;;;12.41;66.03
9110;BME280;4590;51.462;6.692;2022-12-29T07:04:27;99971.22;;;12.44;66.23
9110;BME280;4590;51.462;6.692;2022-12-29T07:06:52;99964.22;;;12.47;66.20
9110;BME280;4590;51.462;6.692;2022-12-29T07:09:18;99969.16;;;12.41;66.16
9110;BME280;4590;51.462;6.692;2022-12-29T07:11:43;99969.28;;;12.45;65.80
9110;BME280;4590;51.462;6.692;2022-12-29T07:14:10;99974.47;;;12.46;65.69
9110;BME280;4590;51.462;6.692;2022-12-29T07:16:36;99984.81;;;12.49;65.88
9110;BME280;4590;51.462;6.692;2022-12-29T07:19:02;99983.53;;;12.47;65.61
9110;BME280;4590;51.462;6.692;2022-12-29T07:21:27;99991.63;;;12.52;65.43
9110;BME280;4590;51.462;6.692;2022-12-29T07:23:53;99975.06;;;12.52;65.35
9110;BME280;4590;51.462;6.692;2022-12-29T07:26:19;99983.00;;;12.53;65.49
9110;BME280;4590;51.462;6.692;2022-12-29T07:28:44;99990.81;;;12.51;65.53
9110;BME280;4590;51.462;6.692;2022-12-29T07:31:21;99985.50;;;12.46;65.14
9110;BME280;4590;51.462;6.692;2022-12-29T07:33:47;99992.44;;;12.52;64.96
9110;BME280;4590;51.462;6.692;2022-12-29T07:36:13;100009.66;;;12.49;65.09
9110;BME280;4590;51.462;6.692;2022-12-29T07:38:39;100005.41;;;12.52;64.81
9110;BME280;4590;51.462;6.692;2022-12-29T07:41:04;99994.84;;;12.54;64.93
9110;BME280;4590;51.462;6.692;2022-12-29T07:43:30;99993.91;;;12.50;64.71
9110;BME280;4590;51.462;6.692;2022-12-29T07:45:55;100003.13;;;12.54;64.46
9110;BME280;4590;51.462;6.692;2022-12-29T07:48:20;100006.22;;;12.52;64.26
9110;BME280;4590;51.462;6.692;2022-12-29T07:50:46;100003.00;;;12.50;64.01
9110;BME280;4590;51.462;6.692;2022-12-29T07:53:11;100015.19;;;12.49;63.82
9110;BME280;4590;51.462;6.692;2022-12-29T07:55:36;100019.69;;;12.54;63.66
9110;BME280;4590;51.462;6.692;2022-12-29T07:58:02;100021.03;;;12.48;63.29
9110;BME280;4590;51.462;6.692;2022-12-29T08:00:27;100011.94;;;12.47;63.05
9110;BME280;4590;51.462;6.692;2022-12-29T08:02:53;100013.22;;;12.50;62.96
9110;BME280;4590;51.462;6.692;2022-12-29T08:05:18;100030.13;;;12.48;62.54
9110;BME280;4590;51.462;6.692;2022-12-29T08:07:44;100042.09;;;12.52;62.64
9110;BME280;4590;51.462;6.692;2022-12-29T08:10:10;100039.34;;;12.52;62.71
9110;BME280;4590;51.462;6.692;2022-12-29T08:12:38;100038.38;;;12.48;62.50
9110;BME280;4590;51.462;6.692;2022-12-29T08:15:04;100041.28;;;12.52;62.77
9110;BME280;4590;51.462;6.692;2022-12-29T08:17:29;100053.47;;;12.51;62.63
9110;BME280;4590;51.462;6.692;2022-12-29T08:19:54;100051.38;;;12.48;62.70
9110;BME280;4590;51.462;6.692;2022-12-29T08:22:20;100050.72;;;12.51;62.74
9110;BME280;4590;51.462;6.692;2022-12-29T08:24:45;100057.38;;;12.50;62.75
9110;BME280;4590;51.462;6.692;2022-12-29T08:27:10;100048.28;;;12.49;62.71
9110;BME280;4590;51.462;6.692;2022-12-29T08:29:35;100057.38;;;12.50;62.77
9110;BME280;4590;51.462;6.692;2022-12-29T08:32:01;100056.09;;;12.47;62.67
9110;BME280;4590;51.462;6.692;2022-12-29T08:34:26;100067.94;;;12.48;62.82
9110;BME280;4590;51.462;6.692;2022-12-29T08:36:51;100048.38;;;12.41;62.70
9110;BME280;4590;51.462;6.692;2022-12-29T08:39:17;100048.38;;;12.41;62.71
9110;BME280;4590;51.462;6.692;2022-12-29T08:41:42;100056.41;;;12.46;62.74
9110;BME280;4590;51.462;6.692;2022-12-29T08:44:07;100058.69;;;12.44;62.80
9110;BME280;4590;51.462;6.692;2022-12-29T08:46:33;100056.31;;;12.42;62.73
9110;BME280;4590;51.462;6.692;2022-12-29T08:48:58;100064.22;;;12.44;62.84
9110;BME280;4590;51.462;6.692;2022-12-29T08:51:23;100048.38;;;12.41;62.93
9110;BME280;4590;51.462;6.692;2022-12-29T08:53:49;100056.63;;;12.41;62.67
9110;BME280;4590;51.462;6.692;2022-12-29T08:56:14;100066.53;;;12.42;62.83
9110;BME280;4590;51.462;6.692;2022-12-29T08:58:40;100065.03;;;12.44;62.57
9110;BME280;4590;51.462;6.692;2022-12-29T09:01:05;100072.31;;;12.49;62.55
9110;BME280;4590;51.462;6.692;2022-12-29T09:03:31;100061.81;;;12.42;62.52
9110;BME280;4590;51.462;6.692;2022-12-29T09:05:56;100081.88;;;12.51;62.19
9110;BME280;4590;51.462;6.692;2022-12-29T09:08:22;100086.72;;;12.54;61.82
9110;BME280;4590;51.462;6.692;2022-12-29T09:10:48;100069.47;;;12.37;60.75
9110;BME280;4590;51.462;6.692;2022-12-29T09:13:14;100068.56;;;12.53;62.03
9110;BME280;4590;51.462;6.692;2022-12-29T09:15:40;100067.75;;;12.53;61.86
9110;BME280;4590;51.462;6.692;2022-12-29T09:18:07;100075.69;;;12.54;61.83
9110;BME280;4590;51.462;6.692;2022-12-29T09:20:33;100061.56;;;12.56;61.62
9110;BME280;4590;51.462;6.692;2022-12-29T09:22:59;100073.41;;;12.56;61.64
9110;BME280;4590;51.462;6.692;2022-12-29T09:25:25;100081.25;;;12.46;61.70
9110;BME280;4590;51.462;6.692;2022-12-29T09:27:51;100084.31;;;12.53;61.41
9110;BME280;4590;51.462;6.692;2022-12-29T09:30:19;100080.88;;;12.56;61.52
9110;BME280;4590;51.462;6.692;2022-12-29T09:32:45;100081.88;;;12.51;61.39
9110;BME280;4590;51.462;6.692;2022-12-29T09:35:11;100077.16;;;12.52;61.23
9110;BME280;4590;51.462;6.692;2022-12-29T09:37:36;100083.34;;;12.49;61.79
9110;BME280;4590;51.462;6.692;2022-12-29T09:40:03;100080.59;;;12.49;61.25
9110;BME280;4590;51.462;6.692;2022-12-29T09:42:35;100081.72;;;12.48;60.86
9110;BME280;4590;51.462;6.692;2022-12-29T09:45:17;100091.97;;;12.47;61.07
9110;BME280;4590;51.462;6.692;2022-12-29T09:47:44;100084.44;;;12.56;61.51
9110;BME280;4590;51.462;6.692;2022-12-29T09:50:30;100075.06;;;12.49;60.20
9110;BME280;4590;51.462;6.692;2022-12-29T09:53:15;100087.72;;;12.50;60.37
9110;BME280;4590;51.462;6.692;2022-12-29T09:55:52;100084.63;;;12.51;60.46
9110;BME280;4590;51.462;6.692;2022-12-29T10:01:00;100082.03;;;12.55;60.10
9110;BME280;4590;51.462;6.692;2022-12-29T10:03:36;100100.38;;;12.51;59.69
9110;BME280;4590;51.462;6.692;2022-12-29T10:06:12;100080.72;;;12.52;58.83
9110;BME280;4590;51.462;6.692;2022-12-29T10:09:31;100084.16;;;12.49;58.27
9110;BME280;4590;51.462;6.692;2022-12-29T10:12:11;100080.88;;;12.56;59.14
9110;BME280;4590;51.462;6.692;2022-12-29T10:14:58;100087.00;;;12.61;59.86
9110;BME280;4590;51.462;6.692;2022-12-29T10:20:19;100107.88;;;12.71;59.08
9110;BME280;4590;51.462;6.692;2022-12-29T10:23:09;100092.66;;;12.65;57.67
9110;BME280;4590;51.462;6.692;2022-12-29T10:25:39;100101.00;;;12.77;59.07
9110;BME280;4590;51.462;6.692;2022-12-29T10:31:14;100115.69;;;12.69;58.46
9110;BME280;4590;51.462;6.692;2022-12-29T10:33:42;100108.72;;;12.63;57.05
9110;BME280;4590;51.462;6.692;2022-12-29T10:36:15;100116.75;;;12.77;58.39
9110;BME280;4590;51.462;6.692;2022-12-29T10:38:50;100116.16;;;12.71;57.96
9110;BME280;4590;51.462;6.692;2022-12-29T10:41:31;100112.78;;;12.65;57.39
9110;BME280;4590;51.462;6.692;2022-12-29T10:44:00;100119.59;;;12.68;58.49
9110;BME280;4590;51.462;6.692;2022-12-29T10:46:29;100131.69;;;12.55;56.63
9110;BME280;4590;51.462;6.692;2022-12-29T10:48:56;100133.88;;;12.70;58.14
9110;BME280;4590;51.462;6.692;2022-12-29T10:51:24;100147.13;;;12.77;58.10
9110;BME280;4590;51.462;6.692;2022-12-29T10:53:55;100145.06;;;12.74;57.99
9110;BME280;4590;51.462;6.692;2022-12-29T10:59:20;100136.63;;;12.70;58.14
9110;BME280;4590;51.462;6.692;2022-12-29T11:07:03;100141.66;;;12.68;57.93
9110;BME280;4590;51.462;6.692;2022-12-29T11:09:29;100150.75;;;12.69;57.60
9110;BME280;4590;51.462;6.692;2022-12-29T11:11:56;100149.63;;;12.70;57.77
9110;BME280;4590;51.462;6.692;2022-12-29T11:14:27;100156.69;;;12.58;56.75
9110;BME280;4590;51.462;6.692;2022-12-29T11:17:01;100170.41;;;12.67;57.47
9110;BME280;4590;51.462;6.692;2022-12-29T11:19:32;100169.09;;;12.73;57.20
9110;BME280;4590;51.462;6.692;2022-12-29T11:22:27;100172.38;;;12.67;56.74
9110;BME280;4590;51.462;6.692;2022-12-29T11:24:54;100166.13;;;12.78;57.69
9110;BME280;4590;51.462;6.692;2022-12-29T11:27:29;100174.38;;;12.78;57.51
9110;BME280;4590;51.462;6.692;2022-12-29T11:29:54;100172.78;;;12.77;57.10
9110;BME280;4590;51.462;6.692;2022-12-29T11:32:25;100173.91;;;12.76;56.75
9110;BME280;4590;51.462;6.692;2022-12-29T11:34:51;100169.19;;;12.77;57.20
9110;BME280;4590;51.462;6.692;2022-12-29T11:37:18;100178.44;;;12.81;56.83
9110;BME280;4590;51.462;6.692;2022-12-29T11:39:55;100187.13;;;12.71;56.42
9110;BME280;4590;51.462;6.692;2022-12-29T11:42:36;100183.25;;;12.63;55.50
9110;BME280;4590;51.462;6.692;2022-12-29T11:45:09;100187.06;;;12.79;56.53
9110;BME280;4590;51.462;6.692;2022-12-29T11:47:38;100191.25;;;12.85;57.01
9110;BME280;4590;51.462;6.692;2022-12-29T11:50:06;100181.34;;;12.84;56.49
9110;BME280;4590;51.462;6.692;2022-12-29T11:52:35;100182.50;;;12.83;56.76
9110;BME280;4590;51.462;6.692;2022-12-29T11:55:05;100184.38;;;12.91;56.68
9110;BME280;4590;51.462;6.692;2022-12-29T11:57:33;100186.00;;;12.92;56.53
9110;BME280;4590;51.462;6.692;2022-12-29T12:00:02;100198.00;;;12.96;56.55
9110;BME280;4590;51.462;6.692;2022-12-29T12:02:41;100192.94;;;12.98;55.35
9110;BME280;4590;51.462;6.692;2022-12-29T12:06:01;100190.59;;;12.88;55.24
9110;BME280;4590;51.462;6.692;2022-12-29T12:08:39;100204.66;;;12.95;54.86
9110;BME280;4590;51.462;6.692;2022-12-29T12:11:19;100210.66;;;12.97;55.18
9110;BME280;4590;51.462;6.692;2022-12-29T12:14:15;100197.19;;;12.96;55.37
9110;BME280;4590;51.462;6.692;2022-12-29T12:16:47;100210.66;;;12.97;55.44
9110;BME280;4590;51.462;6.692;2022-12-29T12:19:31;100208.41;;;12.91;55.96
9110;BME280;4590;51.462;6.692;2022-12-29T12:24:56;100215.44;;;12.88;56.19
9110;BME280;4590;51.462;6.692;2022-12-29T12:27:26;100223.03;;;12.91;56.02
9110;BME280;4590;51.462;6.692;2022-12-29T12:30:24;100226.38;;;12.76;54.81
9110;BME280;4590;51.462;6.692;2022-12-29T12:33:04;100224.19;;;12.90;55.70
9110;BME280;4590;51.462;6.692;2022-12-29T12:35:53;100219.47;;;12.91;55.92
9110;BME280;4590;51.462;6.692;2022-12-29T12:41:09;100224.72;;;12.84;55.87
9110;BME280;4590;51.462;6.692;2022-12-29T12:43:50;100236.09;;;12.82;55.80
9110;BME280;4590;51.462;6.692;2022-12-29T12:46:51;100242.75;;;12.81;55.61
9110;BME280;4590;51.462;6.692;2022-12-29T12:57:50;100242.81;;;12.73;55.73
9110;BME280;4590;51.462;6.692;2022-12-29T13:00:18;100247.78;;;12.79;56.30
9110;BME280;4590;51.462;6.692;2022-12-29T13:03:05;100246.16;;;12.78;55.96
9110;BME280;4590;51.462;6.692;2022-12-29T13:10:58;100259.94;;;12.87;56.25
9110;BME280;4590;51.462;6.692;2022-12-29T13:16:03;100264.84;;;12.81;55.56
9110;BME280;4590;51.462;6.692;2022-12-29T13:19:27;100268.13;;;12.75;56.19
9110;BME280;4590;51.462;6.692;2022-12-29T13:24:21;100262.06;;;12.81;56.29
9110;BME280;4590;51.462;6.692;2022-12-29T13:26:52;100270.50;;;12.85;56.36
9110;BME280;4590;51.462;6.692;2022-12-29T13:29:36;100263.28;;;12.72;56.21
9110;BME280;4590;51.462;6.692;2022-12-29T13:34:48;100271.81;;;12.79;56.81
9110;BME280;4590;51.462;6.692;2022-12-29T13:37:20;100277.34;;;12.79;56.53
9110;BME280;4590;51.462;6.692;2022-12-29T13:40:03;100278.22;;;12.71;56.34
9110;BME280;4590;51.462;6.692;2022-12-29T13:42:29;100272.97;;;12.78;56.78
9110;BME280;4590;51.462;6.692;2022-12-29T13:45:02;100280.78;;;12.76;56.32
9110;BME280;4590;51.462;6.692;2022-12-29T13:47:33;100287.47;;;12.75;56.56
9110;BME280;4590;51.462;6.692;2022-12-29T13:50:02;100283.06;;;12.74;56.79
9110;BME280;4590;51.462;6.692;2022-12-29T13:55:32;100293.16;;;12.70;56.69
9110;BME280;4590;51.462;6.692;2022-12-29T13:58:11;100304.84;;;12.67;57.11
9110;BME280;4590;51.462;6.692;2022-12-29T14:03:51;100304.91;;;12.58;58.40
9110;BME280;4590;51.462;6.692;2022-12-29T14:06:21;100303.28;;;12.57;58.63
9110;BME280;4590;51.462;6.692;2022-12-29T14:08:52;100303.94;;;12.54;59.14
9110;BME280;4590;51.462;6.692;2022-12-29T14:11:21;100302.31;;;12.44;59.81
9110;BME280;4590;51.462;6.692;2022-12-29T14:13:47;100305.44;;;12.43;60.04
9110;BME280;4590;51.462;6.692;2022-12-29T14:16:31;100305.94;;;12.36;60.22
9110;BME280;4590;51.462;6.692;2022-12-29T14:19:14;100304.63;;;12.34;60.21
9110;BME280;4590;51.462;6.692;2022-12-29T14:21:41;100299.94;;;12.34;60.04
9110;BME280;4590;51.462;6.692;2022-12-29T14:34:53;100304.16;;;12.32;59.69
9110;BME280;4590;51.462;6.692;2022-12-29T14:37:23;100304.16;;;12.32;59.49
9110;BME280;4590;51.462;6.692;2022-12-29T14:39:49;100317.63;;;12.33;59.61
9110;BME280;4590;51.462;6.692;2022-12-29T14:42:19;100323.13;;;12.33;59.36
9110;BME280;4590;51.462;6.692;2022-12-29T14:45:01;100305.00;;;12.23;58.78
9110;BME280;4590;51.462;6.692;2022-12-29T14:49:57;100319.06;;;12.30;58.96
9110;BME280;4590;51.462;6.692;2022-12-29T14:52:28;100320.38;;;12.33;59.28